Emerald Isle, North Carolina
Current Conditions -  °F | °C
As of 11:57 AM on Thursday 27 Nov 2014 (Local Time) from KNJM Reporting Station
Clear Clear  
Wind Chill: 56°   Ceiling: Unl
Heat Index: 56°   Visibility: 10mi
Dew Point: 38°   Wind: 8mph
Humidity: 51%   Direction: 250°WSW
Pressure: 29.97"   Gusts: NA
Location:  34.68°N, 76.95°W
Report Text: KNJM 271657Z AUTO 25007KT 10SM CLR 13/03 A2997 RMK AO2 SLP154 T01330033
Loading
Personal Weather Stations






























Interactive Weather Map New forecast layout! Learn more

10-Day Weather Forecast

Advertisements
Track Severe Weather on mobile